YFC83 WSSL-WSSL
Flight info
| Callsign | YFC83 |
|---|---|
| Flight time | 0h 14m |
| Altitude | 5000 |
| Route | CCTS/LATA |
| Aircraft | DA40/L-SDE1FGHILORVWXY/LB1D1 |
Departure
| Time | 2026-05-07 11:46 |
|---|---|
| Airport | Seletar Airport (WSSL) |
Arrival
| Time | 2026-05-07 12:01 |
|---|---|
| Airport | Seletar Airport (WSSL) |
| Time | Latitude | Longitude | Altitude | Speed | Heading |
|---|---|---|---|---|---|
| 2026-05-07 11:46 | 1.41977 | 103.85536 | 6793 ft | 102 kts | 293° |
| 2026-05-07 11:46 | 1.41862 | 103.84848 | 6514 ft | 98 kts | 230° |
| 2026-05-07 11:46 | 1.41343 | 103.84493 | 6381 ft | 87 kts | 202° |
| 2026-05-07 11:46 | 1.40827 | 103.84156 | 6177 ft | 91 kts | 225° |
| 2026-05-07 11:47 | 1.40537 | 103.83598 | 6055 ft | 87 kts | 239° |
| 2026-05-07 11:47 | 1.40171 | 103.83137 | 5959 ft | 89 kts | 207° |
| 2026-05-07 11:47 | 1.39605 | 103.83205 | 5869 ft | 85 kts | 135° |
| 2026-05-07 11:47 | 1.39507 | 103.83761 | 5770 ft | 89 kts | 68° |
| 2026-05-07 11:48 | 1.39991 | 103.84088 | 5693 ft | 93 kts | 2° |
| 2026-05-07 11:48 | 1.40525 | 103.83773 | 5645 ft | 89 kts | 296° |
| 2026-05-07 11:48 | 1.40512 | 103.83170 | 5552 ft | 87 kts | 236° |
| 2026-05-07 11:48 | 1.40029 | 103.82855 | 5458 ft | 86 kts | 184° |
| 2026-05-07 11:49 | 1.39490 | 103.83008 | 5398 ft | 82 kts | 140° |
| 2026-05-07 11:49 | 1.39261 | 103.83518 | 5301 ft | 86 kts | 91° |
| 2026-05-07 11:49 | 1.39451 | 103.84078 | 5255 ft | 84 kts | 55° |
| 2026-05-07 11:49 | 1.39891 | 103.84441 | 5308 ft | 87 kts | 27° |
| 2026-05-07 11:50 | 1.40448 | 103.84608 | 5431 ft | 83 kts | 2° |
| 2026-05-07 11:50 | 1.40970 | 103.84356 | 5429 ft | 90 kts | 301° |
| 2026-05-07 11:50 | 1.40810 | 103.83932 | 5100 ft | 100 kts | 148° |
| 2026-05-07 11:50 | 1.40912 | 103.84512 | 4985 ft | 84 kts | 48° |
| 2026-05-07 11:51 | 1.41353 | 103.84914 | 4771 ft | 89 kts | 44° |
| 2026-05-07 11:51 | 1.41730 | 103.85378 | 4587 ft | 87 kts | 56° |
| 2026-05-07 11:51 | 1.42187 | 103.85807 | 4360 ft | 87 kts | 55° |
| 2026-05-07 11:51 | 1.42600 | 103.86211 | 4072 ft | 92 kts | 8° |
| 2026-05-07 11:52 | 1.43237 | 103.86280 | 3747 ft | 96 kts | 33° |
| 2026-05-07 11:52 | 1.43813 | 103.86393 | 3516 ft | 82 kts | 14° |
| 2026-05-07 11:52 | 1.43942 | 103.86044 | 3203 ft | 73 kts | 208° |
| 2026-05-07 11:52 | 1.43476 | 103.86260 | 2842 ft | 82 kts | 133° |
| 2026-05-07 11:53 | 1.43176 | 103.86773 | 2502 ft | 93 kts | 129° |
| 2026-05-07 11:53 | 1.42943 | 103.87301 | 2460 ft | 76 kts | 115° |
| 2026-05-07 11:53 | 1.42571 | 103.87620 | 2428 ft | 75 kts | 176° |
| 2026-05-07 11:53 | 1.42107 | 103.87356 | 2399 ft | 82 kts | 217° |
| 2026-05-07 11:54 | 1.41684 | 103.86999 | 2256 ft | 79 kts | 221° |
| 2026-05-07 11:54 | 1.41428 | 103.86532 | 2073 ft | 82 kts | 270° |
| 2026-05-07 11:54 | 1.41603 | 103.85973 | 1865 ft | 85 kts | 292° |
| 2026-05-07 11:54 | 1.41854 | 103.85439 | 1671 ft | 87 kts | 306° |
| 2026-05-07 11:55 | 1.42373 | 103.85274 | 1472 ft | 82 kts | 22° |
| 2026-05-07 11:55 | 1.42911 | 103.85487 | 1267 ft | 81 kts | 27° |
| 2026-05-07 11:55 | 1.43373 | 103.85814 | 1051 ft | 81 kts | 62° |
| 2026-05-07 11:55 | 1.43418 | 103.86362 | 852 ft | 81 kts | 105° |
| 2026-05-07 11:56 | 1.43185 | 103.86854 | 675 ft | 79 kts | 122° |
| 2026-05-07 11:56 | 1.42844 | 103.87301 | 459 ft | 81 kts | 147° |
| 2026-05-07 11:56 | 1.42336 | 103.87186 | 167 ft | 84 kts | 212° |
| 2026-05-07 11:56 | 1.41899 | 103.86898 | 48 ft | 62 kts | 213° |
| 2026-05-07 11:57 | 1.41556 | 103.86677 | 49 ft | 70 kts | 213° |
| 2026-05-07 11:57 | 1.41138 | 103.86402 | 166 ft | 70 kts | 212° |
| 2026-05-07 11:57 | 1.40730 | 103.86134 | 274 ft | 73 kts | 211° |
| 2026-05-07 11:57 | 1.40343 | 103.85812 | 425 ft | 72 kts | 242° |
| 2026-05-07 11:58 | 1.40406 | 103.85333 | 527 ft | 78 kts | 312° |
| 2026-05-07 11:58 | 1.40807 | 103.84977 | 665 ft | 79 kts | 332° |
| 2026-05-07 11:58 | 1.41357 | 103.84958 | 833 ft | 79 kts | 25° |
| 2026-05-07 11:58 | 1.41805 | 103.85227 | 995 ft | 75 kts | 43° |
| 2026-05-07 11:59 | 1.42220 | 103.85574 | 1075 ft | 83 kts | 43° |
| 2026-05-07 11:59 | 1.42677 | 103.85872 | 1230 ft | 77 kts | 31° |
| 2026-05-07 11:59 | 1.43183 | 103.86117 | 1380 ft | 81 kts | 26° |
| 2026-05-07 11:59 | 1.43501 | 103.86502 | 1223 ft | 82 kts | 86° |
| 2026-05-07 12:00 | 1.43397 | 103.87040 | 1025 ft | 79 kts | 111° |
| 2026-05-07 12:00 | 1.43085 | 103.87490 | 774 ft | 81 kts | 157° |
| 2026-05-07 12:00 | 1.42570 | 103.87363 | 376 ft | 87 kts | 227° |
| 2026-05-07 12:00 | 1.42079 | 103.87014 | 70 ft | 78 kts | 212° |
| 2026-05-07 12:01 | 1.41708 | 103.86775 | 48 ft | 49 kts | 212° |
| 2026-05-07 12:01 | 1.41529 | 103.86655 | 50 ft | 12 kts | 214° |
| 2026-05-07 12:01 | 1.41511 | 103.86643 | 50 ft | 0 kts | 248° |